createdAt,value
2017-03-02T00:00:07.547Z,0
2017-03-02T00:01:07.554Z,0
2017-03-02T00:02:07.532Z,0
2017-03-02T00:03:07.515Z,0
2017-03-02T00:04:07.493Z,0
2017-03-02T00:05:07.479Z,0
2017-03-02T00:06:07.480Z,0
2017-03-02T00:07:07.432Z,0
2017-03-02T00:08:07.458Z,0
2017-03-02T00:09:07.417Z,0
2017-03-02T00:10:07.403Z,0
2017-03-02T00:11:07.380Z,0
2017-03-02T00:12:07.371Z,0
2017-03-02T00:13:07.381Z,0
2017-03-02T00:14:07.354Z,0
2017-03-02T00:15:07.339Z,0
2017-03-02T00:16:07.319Z,0
2017-03-02T00:17:07.329Z,0
2017-03-02T00:18:07.314Z,0
2017-03-02T00:19:07.274Z,0
2017-03-02T00:20:07.283Z,0
2017-03-02T00:21:07.287Z,0
2017-03-02T00:22:07.237Z,0
2017-03-02T00:23:07.236Z,0
2017-03-02T00:24:07.223Z,0
2017-03-02T00:25:07.235Z,0
2017-03-02T00:26:06.803Z,0
2017-03-02T00:27:07.175Z,0
2017-03-02T00:28:07.174Z,0
2017-03-02T00:29:07.155Z,0
2017-03-02T00:30:07.154Z,0
2017-03-02T00:31:07.123Z,0
2017-03-02T00:32:07.120Z,0
2017-03-02T00:33:07.105Z,0
2017-03-02T00:34:07.092Z,0
2017-03-02T00:35:07.073Z,0
2017-03-02T00:36:07.086Z,0
2017-03-02T00:37:07.090Z,0
2017-03-02T00:38:07.069Z,0
2017-03-02T00:39:07.034Z,0
2017-03-02T00:40:07.009Z,0
2017-03-02T00:41:06.666Z,0
2017-03-02T00:42:06.995Z,0
2017-03-02T00:43:06.977Z,0
2017-03-02T00:44:06.979Z,0
2017-03-02T00:45:06.956Z,0
2017-03-02T00:46:06.943Z,0
2017-03-02T00:47:06.922Z,0
2017-03-02T00:48:06.925Z,0
2017-03-02T00:49:06.896Z,0
2017-03-02T00:50:06.902Z,0
2017-03-02T00:51:06.882Z,0
2017-03-02T00:52:06.852Z,0
2017-03-02T00:53:06.872Z,0
2017-03-02T00:54:06.834Z,0
2017-03-02T00:55:06.856Z,0
2017-03-02T00:56:06.822Z,0
2017-03-02T00:57:06.796Z,0
2017-03-02T00:58:06.784Z,0
2017-03-02T00:59:06.769Z,0
2017-03-02T01:00:06.758Z,0
2017-03-02T01:01:06.743Z,0
2017-03-02T01:02:06.743Z,0
2017-03-02T01:03:07.028Z,0
2017-03-02T01:04:06.722Z,0
2017-03-02T01:05:06.711Z,0
2017-03-02T01:06:06.697Z,0
2017-03-02T01:07:06.684Z,0
2017-03-02T01:08:06.658Z,0
2017-03-02T01:09:06.266Z,0
2017-03-02T01:10:06.634Z,0
2017-03-02T01:11:06.634Z,0
2017-03-02T01:12:06.652Z,0
2017-03-02T01:13:06.651Z,0
2017-03-02T01:14:06.209Z,0
2017-03-02T01:15:06.197Z,0
2017-03-02T01:16:06.589Z,0
2017-03-02T01:17:06.551Z,0
2017-03-02T01:18:06.550Z,0
2017-03-02T01:19:06.544Z,0
2017-03-02T01:20:06.518Z,0
2017-03-02T01:21:06.523Z,0
2017-03-02T01:22:06.488Z,0
2017-03-02T01:23:06.525Z,0
2017-03-02T01:24:06.475Z,0
2017-03-02T01:25:06.451Z,0
2017-03-02T01:26:06.455Z,0
2017-03-02T01:27:06.435Z,0
2017-03-02T01:28:06.426Z,0
2017-03-02T01:29:06.403Z,0
2017-03-02T01:30:06.397Z,0
2017-03-02T01:31:06.384Z,0
2017-03-02T01:32:06.370Z,0
2017-03-02T01:33:06.365Z,0
2017-03-02T01:34:06.361Z,0
2017-03-02T01:35:06.347Z,0
2017-03-02T01:36:06.326Z,0
2017-03-02T01:37:06.312Z,0
2017-03-02T01:38:06.326Z,0
2017-03-02T01:39:06.294Z,0
2017-03-02T01:40:05.896Z,0
2017-03-02T01:41:06.261Z,0
2017-03-02T01:42:06.255Z,0
2017-03-02T01:43:06.267Z,0
2017-03-02T01:44:06.253Z,0
2017-03-02T01:45:06.241Z,0
2017-03-02T01:46:06.202Z,0
2017-03-02T01:47:06.215Z,0
2017-03-02T01:48:06.189Z,0
2017-03-02T01:49:06.164Z,0
2017-03-02T01:50:06.163Z,0
2017-03-02T01:51:06.147Z,0
2017-03-02T01:52:06.141Z,0
2017-03-02T01:53:06.122Z,0
2017-03-02T01:54:06.105Z,0
2017-03-02T01:55:06.093Z,0
2017-03-02T01:56:06.090Z,0
2017-03-02T01:57:06.098Z,0
2017-03-02T01:58:06.082Z,0
2017-03-02T01:59:06.049Z,0
2017-03-02T02:00:06.035Z,0
2017-03-02T02:01:06.024Z,0
2017-03-02T02:02:06.013Z,0
2017-03-02T02:03:06.002Z,0
2017-03-02T02:04:06.009Z,0
2017-03-02T02:05:05.991Z,0
2017-03-02T02:06:05.960Z,0
2017-03-02T02:07:05.956Z,0
2017-03-02T02:08:05.958Z,0
2017-03-02T02:09:05.926Z,0
2017-03-02T02:10:05.935Z,0
2017-03-02T02:11:05.902Z,0
2017-03-02T02:12:05.898Z,0
2017-03-02T02:13:05.900Z,0
2017-03-02T02:14:05.872Z,0
2017-03-02T02:15:05.880Z,0
2017-03-02T02:16:05.845Z,0
2017-03-02T02:17:05.832Z,0
2017-03-02T02:18:05.821Z,0
2017-03-02T02:19:05.809Z,0
2017-03-02T02:20:05.421Z,0
2017-03-02T02:21:05.796Z,0
2017-03-02T02:22:05.783Z,0
2017-03-02T02:23:05.791Z,0
2017-03-02T02:24:05.752Z,0
2017-03-02T02:25:05.747Z,0
2017-03-02T02:26:05.726Z,0
2017-03-02T02:27:05.743Z,0
2017-03-02T02:28:05.703Z,0
2017-03-02T02:29:05.703Z,0
2017-03-02T02:30:05.321Z,0
2017-03-02T02:31:05.702Z,0
2017-03-02T02:32:05.685Z,0
2017-03-02T02:33:05.679Z,0
2017-03-02T02:34:05.668Z,0
2017-03-02T02:35:05.246Z,0
2017-03-02T02:36:05.621Z,0
2017-03-02T02:37:05.607Z,0
2017-03-02T02:38:05.587Z,0
2017-03-02T02:39:05.590Z,0
2017-03-02T02:40:04.792Z,0
2017-03-02T02:41:05.551Z,0
2017-03-02T02:42:05.559Z,0
2017-03-02T02:43:05.525Z,0
2017-03-02T02:44:05.540Z,0
2017-03-02T02:45:05.508Z,0
2017-03-02T02:46:05.516Z,0
2017-03-02T02:47:05.480Z,0
2017-03-02T02:48:05.479Z,0
2017-03-02T02:49:05.485Z,0
2017-03-02T02:50:05.465Z,0
2017-03-02T02:51:05.474Z,0
2017-03-02T02:52:05.451Z,0
2017-03-02T02:53:05.438Z,0
2017-03-02T02:54:05.405Z,0
2017-03-02T02:55:05.399Z,0
2017-03-02T02:56:05.404Z,0
2017-03-02T02:57:05.378Z,0
2017-03-02T02:58:05.386Z,0
2017-03-02T02:59:05.353Z,0
2017-03-02T03:00:05.329Z,0
2017-03-02T03:01:05.348Z,0
2017-03-02T03:02:05.313Z,0
2017-03-02T03:03:05.297Z,0
2017-03-02T03:04:05.287Z,0
2017-03-02T03:05:04.903Z,0
2017-03-02T03:06:04.876Z,0
2017-03-02T03:07:05.259Z,0
2017-03-02T03:08:05.245Z,0
2017-03-02T03:09:05.239Z,0
2017-03-02T03:10:05.216Z,0
2017-03-02T03:11:05.215Z,0
2017-03-02T03:12:05.207Z,0
2017-03-02T03:13:05.205Z,0
2017-03-02T03:14:05.168Z,0
2017-03-02T03:15:05.158Z,0
2017-03-02T03:16:05.149Z,0
2017-03-02T03:17:05.136Z,0
2017-03-02T03:18:04.739Z,0
2017-03-02T03:19:05.444Z,0
2017-03-02T03:20:04.720Z,0
2017-03-02T03:21:05.107Z,0
2017-03-02T03:22:05.082Z,0
2017-03-02T03:23:05.077Z,0
2017-03-02T03:24:05.061Z,0
2017-03-02T03:25:05.049Z,0
2017-03-02T03:26:05.041Z,0
2017-03-02T03:27:05.040Z,0
2017-03-02T03:28:05.024Z,0
2017-03-02T03:29:05.029Z,0
2017-03-02T03:30:05.011Z,0
2017-03-02T03:31:04.978Z,0
2017-03-02T03:32:04.968Z,0
2017-03-02T03:33:04.993Z,0
2017-03-02T03:34:05.229Z,0
2017-03-02T03:35:04.934Z,0
2017-03-02T03:36:04.931Z,0
2017-03-02T03:37:04.919Z,0
2017-03-02T03:38:04.920Z,0
2017-03-02T03:39:04.891Z,0
2017-03-02T03:40:04.878Z,0
2017-03-02T03:41:04.894Z,0
2017-03-02T03:42:04.853Z,0
2017-03-02T03:43:04.854Z,0
2017-03-02T03:44:04.833Z,0
2017-03-02T03:45:04.828Z,0
2017-03-02T03:46:04.815Z,0
2017-03-02T03:47:04.819Z,0
2017-03-02T03:48:04.816Z,0
2017-03-02T03:49:04.796Z,0
2017-03-02T03:50:04.783Z,0
2017-03-02T03:51:04.758Z,0
2017-03-02T03:52:04.748Z,0
2017-03-02T03:53:04.744Z,0
2017-03-02T03:54:04.720Z,0
2017-03-02T03:55:04.741Z,0
2017-03-02T03:56:04.709Z,0
2017-03-02T03:57:04.693Z,0
2017-03-02T03:58:04.335Z,0
2017-03-02T03:59:04.684Z,0
2017-03-02T04:00:04.659Z,0
2017-03-02T04:01:04.655Z,0
2017-03-02T04:02:04.642Z,0
2017-03-02T04:03:04.631Z,0
2017-03-02T04:04:04.626Z,0
2017-03-02T04:05:04.609Z,0
2017-03-02T04:06:04.606Z,0
2017-03-02T04:07:04.590Z,0
2017-03-02T04:08:04.578Z,0
2017-03-02T04:09:04.563Z,0
2017-03-02T04:10:04.554Z,0
2017-03-02T04:11:04.535Z,0
2017-03-02T04:12:04.523Z,0
2017-03-02T04:13:04.511Z,0
2017-03-02T04:14:04.539Z,0
2017-03-02T04:15:04.514Z,0
2017-03-02T04:16:04.514Z,0
2017-03-02T04:17:04.470Z,0
2017-03-02T04:18:04.081Z,0
2017-03-02T04:19:04.445Z,0
2017-03-02T04:20:04.438Z,0
2017-03-02T04:21:04.430Z,0
2017-03-02T04:22:04.446Z,0
2017-03-02T04:23:04.400Z,0
2017-03-02T04:24:04.445Z,0
2017-03-02T04:25:04.419Z,0
2017-03-02T04:26:04.371Z,0
2017-03-02T04:27:04.354Z,0
2017-03-02T04:28:04.382Z,0
2017-03-02T04:29:04.337Z,0
2017-03-02T04:30:04.329Z,0
2017-03-02T04:31:04.328Z,0
2017-03-02T04:32:04.301Z,0
2017-03-02T04:33:04.305Z,0
2017-03-02T04:34:04.287Z,0
2017-03-02T04:35:04.272Z,0
2017-03-02T04:36:04.274Z,0
2017-03-02T04:37:03.871Z,0
2017-03-02T04:38:04.249Z,0
2017-03-02T04:39:04.222Z,0
2017-03-02T04:40:04.232Z,0
2017-03-02T04:41:04.213Z,0
2017-03-02T04:42:04.206Z,0
2017-03-02T04:43:04.183Z,0
2017-03-02T04:44:04.181Z,0
2017-03-02T04:45:03.770Z,0
2017-03-02T04:46:04.150Z,0
2017-03-02T04:47:04.143Z,0
2017-03-02T04:48:04.133Z,0
2017-03-02T04:49:04.124Z,0
2017-03-02T04:50:04.131Z,0
2017-03-02T04:51:04.092Z,0
2017-03-02T04:52:04.082Z,0
2017-03-02T04:53:04.086Z,0
2017-03-02T04:54:04.070Z,0
2017-03-02T04:55:04.050Z,0
2017-03-02T04:56:04.048Z,0
2017-03-02T04:57:04.034Z,0
2017-03-02T04:58:04.029Z,0
2017-03-02T04:59:04.009Z,0
2017-03-02T05:00:04.019Z,0
2017-03-02T05:01:04.001Z,0
2017-03-02T05:02:03.975Z,0
2017-03-02T05:03:03.974Z,0
2017-03-02T05:04:03.949Z,0
2017-03-02T05:05:03.953Z,0
2017-03-02T05:06:03.925Z,0
2017-03-02T05:07:03.917Z,0
2017-03-02T05:08:03.920Z,0
2017-03-02T05:09:03.900Z,0
2017-03-02T05:10:03.501Z,0
2017-03-02T05:11:03.877Z,0
2017-03-02T05:12:03.861Z,0
2017-03-02T05:13:03.844Z,0
2017-03-02T05:14:03.854Z,0
2017-03-02T05:15:03.843Z,0
2017-03-02T05:16:03.820Z,0
2017-03-02T05:17:03.830Z,28
2017-03-02T05:18:03.803Z,36
2017-03-02T05:19:03.792Z,36
2017-03-02T05:20:03.785Z,40
2017-03-02T05:21:03.759Z,40
2017-03-02T05:22:03.746Z,40
2017-03-02T05:23:03.740Z,40
2017-03-02T05:24:03.734Z,40
2017-03-02T05:25:03.746Z,40
2017-03-02T05:26:03.728Z,40
2017-03-02T05:27:03.717Z,44
2017-03-02T05:28:03.682Z,44
2017-03-02T05:29:03.677Z,44
2017-03-02T05:30:03.662Z,48
2017-03-02T05:31:03.283Z,48
2017-03-02T05:32:03.666Z,48
2017-03-02T05:33:03.632Z,52
2017-03-02T05:34:03.616Z,56
2017-03-02T05:35:03.624Z,60
2017-03-02T05:36:03.633Z,60
2017-03-02T05:37:03.606Z,64
2017-03-02T05:38:03.573Z,64
2017-03-02T05:39:03.581Z,64
2017-03-02T05:40:03.557Z,64
2017-03-02T05:41:03.548Z,60
2017-03-02T05:42:03.543Z,64
2017-03-02T05:43:03.518Z,64
2017-03-02T05:44:03.525Z,72
2017-03-02T05:45:03.492Z,72
2017-03-02T05:46:03.485Z,60
2017-03-02T05:47:03.486Z,100
2017-03-02T05:48:03.491Z,116
2017-03-02T05:49:03.455Z,124
2017-03-02T05:50:03.440Z,160
2017-03-02T05:51:03.430Z,180
2017-03-02T05:52:03.032Z,168
2017-03-02T05:53:03.433Z,164
2017-03-02T05:54:03.423Z,160
2017-03-02T05:55:03.389Z,188
2017-03-02T05:56:03.395Z,224
2017-03-02T05:57:03.395Z,236
2017-03-02T05:58:03.373Z,392
2017-03-02T05:59:03.354Z,488
2017-03-02T06:00:03.368Z,588
2017-03-02T06:01:03.321Z,672
2017-03-02T06:02:02.966Z,672
2017-03-02T06:03:03.317Z,776
2017-03-02T06:04:03.302Z,772
2017-03-02T06:05:02.911Z,780
2017-03-02T06:06:03.293Z,660
2017-03-02T06:07:03.261Z,680
2017-03-02T06:08:03.277Z,528
2017-03-02T06:09:03.238Z,524
2017-03-02T06:10:03.255Z,504
2017-03-02T06:11:03.245Z,560
2017-03-02T06:12:03.239Z,708
2017-03-02T06:13:03.238Z,744
2017-03-02T06:14:03.182Z,680
2017-03-02T06:15:03.181Z,640
2017-03-02T06:16:03.191Z,560
2017-03-02T06:17:03.167Z,520
2017-03-02T06:18:03.168Z,532
2017-03-02T06:19:02.740Z,540
2017-03-02T06:20:03.129Z,684
2017-03-02T06:21:03.138Z,648
2017-03-02T06:22:03.100Z,508
2017-03-02T06:23:03.109Z,540
2017-03-02T06:24:03.092Z,548
2017-03-02T06:25:03.102Z,408
2017-03-02T06:26:03.064Z,340
2017-03-02T06:27:03.064Z,392
2017-03-02T06:28:03.037Z,500
2017-03-02T06:29:03.022Z,776
2017-03-02T06:30:03.022Z,1104
2017-03-02T06:31:03.016Z,1460
2017-03-02T06:32:03.002Z,1508
2017-03-02T06:33:02.987Z,1648
2017-03-02T06:34:02.593Z,1916
2017-03-02T06:35:02.958Z,2176
2017-03-02T06:36:02.964Z,2348
2017-03-02T06:37:02.966Z,2484
2017-03-02T06:38:02.929Z,2980
2017-03-02T06:39:02.925Z,3088
2017-03-02T06:40:02.928Z,3072
2017-03-02T06:41:02.901Z,3280
2017-03-02T06:42:02.890Z,3444
2017-03-02T06:43:02.884Z,4116
2017-03-02T06:44:02.882Z,3788
2017-03-02T06:45:02.863Z,3876
2017-03-02T06:46:02.848Z,3660
2017-03-02T06:47:02.838Z,3484
2017-03-02T06:48:02.837Z,4024
2017-03-02T06:49:02.856Z,3848
2017-03-02T06:50:02.832Z,3968
2017-03-02T06:51:02.802Z,3996
2017-03-02T06:52:02.798Z,4964
2017-03-02T06:53:02.817Z,5460
2017-03-02T06:54:02.768Z,5972
2017-03-02T06:55:03.037Z,5576
2017-03-02T06:56:02.761Z,4736
2017-03-02T06:57:02.749Z,5736
2017-03-02T06:58:02.764Z,5820
2017-03-02T06:59:02.732Z,7188
2017-03-02T07:00:02.717Z,6628
2017-03-02T07:01:02.718Z,5828
2017-03-02T07:02:02.718Z,5272
2017-03-02T07:03:02.691Z,4808
2017-03-02T07:04:02.678Z,3968
2017-03-02T07:05:02.697Z,4440
2017-03-02T07:06:02.660Z,5128
2017-03-02T07:07:02.649Z,4868
2017-03-02T07:08:02.654Z,4700
2017-03-02T07:09:02.657Z,3952
2017-03-02T07:10:02.622Z,3692
2017-03-02T07:11:02.611Z,4004
2017-03-02T07:12:02.599Z,3688
2017-03-02T07:13:02.614Z,3396
2017-03-02T07:14:02.624Z,4568
2017-03-02T07:15:02.188Z,4288
2017-03-02T07:16:02.570Z,3788
2017-03-02T07:17:02.561Z,3420
2017-03-02T07:18:02.545Z,3376
2017-03-02T07:19:01.778Z,4444
2017-03-02T07:20:02.539Z,4476
2017-03-02T07:21:02.521Z,4432
2017-03-02T07:22:02.122Z,4228
2017-03-02T07:23:02.129Z,4748
2017-03-02T07:24:02.508Z,5036
2017-03-02T07:25:02.096Z,5420
2017-03-02T07:26:02.093Z,3928
2017-03-02T07:27:02.107Z,3408
2017-03-02T07:28:02.485Z,3276
2017-03-02T07:29:02.079Z,3484
2017-03-02T07:30:02.065Z,3640
2017-03-02T07:31:02.063Z,3532
2017-03-02T07:32:02.424Z,4860
2017-03-02T07:33:02.426Z,4696
2017-03-02T07:34:02.443Z,4344
2017-03-02T07:35:02.023Z,3644
2017-03-02T07:36:02.016Z,3276
2017-03-02T07:37:02.404Z,3028
2017-03-02T07:38:02.376Z,3464
2017-03-02T07:39:02.368Z,3868
2017-03-02T07:40:02.379Z,5900
2017-03-02T07:41:02.359Z,6592
2017-03-02T07:42:01.952Z,7372
2017-03-02T07:43:01.941Z,7688
2017-03-02T07:44:02.319Z,7604
2017-03-02T07:45:02.307Z,7860
2017-03-02T07:46:02.306Z,7736
2017-03-02T07:47:02.308Z,6156
2017-03-02T07:48:02.292Z,5420
2017-03-02T07:49:02.282Z,5332
2017-03-02T07:50:02.279Z,5576
2017-03-02T07:51:02.265Z,5972
2017-03-02T07:52:02.251Z,6504
2017-03-02T07:53:02.255Z,6812
2017-03-02T07:54:02.256Z,6712
2017-03-02T07:55:02.237Z,6812
2017-03-02T07:56:02.231Z,5756
2017-03-02T07:57:02.231Z,3676
2017-03-02T07:58:02.232Z,4480
2017-03-02T07:59:02.207Z,4412
2017-03-02T08:00:02.202Z,4292
2017-03-02T08:01:01.826Z,4164
2017-03-02T08:02:02.200Z,5368
2017-03-02T08:03:02.187Z,4300
2017-03-02T08:04:01.794Z,4716
2017-03-02T08:05:01.765Z,3972
2017-03-02T08:06:02.148Z,3768
2017-03-02T08:07:02.145Z,3308
2017-03-02T08:08:02.135Z,3184
2017-03-02T08:09:01.736Z,2976
2017-03-02T08:10:02.113Z,2060
2017-03-02T08:11:02.113Z,1564
2017-03-02T08:12:02.108Z,1196
2017-03-02T08:13:02.093Z,1176
2017-03-02T08:14:02.085Z,1016
2017-03-02T08:15:02.110Z,1188
2017-03-02T08:16:02.088Z,896
2017-03-02T08:17:02.073Z,752
2017-03-02T08:18:02.073Z,612
2017-03-02T08:19:02.041Z,592
2017-03-02T08:20:02.340Z,576
2017-03-02T08:21:02.027Z,548
2017-03-02T08:22:02.021Z,632
2017-03-02T08:23:02.045Z,688
2017-03-02T08:24:02.049Z,684
2017-03-02T08:25:02.252Z,880
2017-03-02T08:26:01.997Z,1072
2017-03-02T08:27:01.613Z,1328
2017-03-02T08:28:01.992Z,1504
2017-03-02T08:29:01.958Z,1496
2017-03-02T08:30:01.973Z,1556
2017-03-02T08:31:01.572Z,1900
2017-03-02T08:32:01.962Z,2528
2017-03-02T08:33:01.922Z,3624
2017-03-02T08:34:01.912Z,4764
2017-03-02T08:35:01.905Z,6308
2017-03-02T08:36:01.892Z,7884
2017-03-02T08:37:01.888Z,9596
2017-03-02T08:38:01.872Z,12376
2017-03-02T08:39:01.883Z,18912
2017-03-02T08:40:01.901Z,23392
2017-03-02T08:41:01.846Z,24896
2017-03-02T08:42:01.850Z,23872
2017-03-02T08:43:01.833Z,20832
2017-03-02T08:44:01.832Z,17216
2017-03-02T08:45:01.427Z,15968
2017-03-02T08:46:01.824Z,13664
2017-03-02T08:47:01.799Z,14192
2017-03-02T08:48:01.420Z,16160
2017-03-02T08:49:01.795Z,14840
2017-03-02T08:50:01.769Z,16736
2017-03-02T08:51:01.782Z,17632
2017-03-02T08:52:01.761Z,17664
2017-03-02T08:53:01.744Z,17120
2017-03-02T08:54:01.751Z,16480
2017-03-02T08:55:01.741Z,16480
2017-03-02T08:56:01.715Z,19936
2017-03-02T08:57:01.718Z,14964
2017-03-02T08:58:01.708Z,15352
2017-03-02T08:59:01.722Z,14932
2017-03-02T09:00:01.306Z,17696
2017-03-02T09:01:01.702Z,15044
2017-03-02T09:02:01.671Z,13440
2017-03-02T09:03:01.687Z,15192
2017-03-02T09:04:01.695Z,14092
2017-03-02T09:05:01.649Z,13536
2017-03-02T09:06:01.260Z,13096
2017-03-02T09:07:02.068Z,12820
2017-03-02T09:08:01.669Z,12528
2017-03-02T09:09:01.649Z,11108
2017-03-02T09:10:01.632Z,13308
2017-03-02T09:11:01.622Z,12760
2017-03-02T09:12:01.638Z,11488
2017-03-02T09:13:01.598Z,11200
2017-03-02T09:14:01.616Z,13000
2017-03-02T09:15:01.596Z,14192
2017-03-02T09:16:01.577Z,11472
2017-03-02T09:17:01.583Z,9260
2017-03-02T09:18:01.582Z,10992
2017-03-02T09:19:01.556Z,14224
2017-03-02T09:20:01.582Z,14648
2017-03-02T09:21:01.554Z,14816
2017-03-02T09:22:01.565Z,15856
2017-03-02T09:23:01.530Z,16864
2017-03-02T09:24:01.522Z,15344
2017-03-02T09:25:01.129Z,10728
2017-03-02T09:26:01.521Z,8656
2017-03-02T09:27:01.518Z,6572
2017-03-02T09:28:01.515Z,4988
2017-03-02T09:29:01.506Z,5712
2017-03-02T09:30:01.513Z,7296
2017-03-02T09:31:01.483Z,6260
2017-03-02T09:32:01.476Z,7592
2017-03-02T09:33:01.462Z,8076
2017-03-02T09:34:01.481Z,5412
2017-03-02T09:35:01.474Z,5480
2017-03-02T09:36:01.454Z,5944
2017-03-02T09:37:01.052Z,7788
2017-03-02T09:38:01.450Z,6052
2017-03-02T09:39:01.423Z,8192
2017-03-02T09:40:01.421Z,6900
2017-03-02T09:41:01.441Z,6788
2017-03-02T09:42:01.419Z,5412
2017-03-02T09:43:01.421Z,6112
2017-03-02T09:44:01.391Z,6516
2017-03-02T09:45:01.016Z,6320
2017-03-02T09:46:01.377Z,4876
2017-03-02T09:47:01.396Z,4572
2017-03-02T09:48:01.370Z,4124
2017-03-02T09:49:01.376Z,3828
2017-03-02T09:50:01.347Z,5452
2017-03-02T09:51:01.343Z,8248
2017-03-02T09:52:01.356Z,11456
2017-03-02T09:53:01.360Z,11136
2017-03-02T09:54:00.945Z,14212
2017-03-02T09:55:01.319Z,13972
2017-03-02T09:56:01.324Z,14188
2017-03-02T09:57:00.911Z,16544
2017-03-02T09:58:01.317Z,15528
2017-03-02T09:59:01.285Z,15108
2017-03-02T10:00:01.278Z,14280
2017-03-02T10:01:01.278Z,14528
2017-03-02T10:02:01.287Z,14696
2017-03-02T10:03:01.266Z,12424
2017-03-02T10:04:01.251Z,10764
2017-03-02T10:05:01.243Z,10436
2017-03-02T10:06:01.237Z,11652
2017-03-02T10:07:01.245Z,12596
2017-03-02T10:08:01.234Z,11856
2017-03-02T10:09:01.217Z,12368
2017-03-02T10:10:01.230Z,11396
2017-03-02T10:11:01.230Z,11172
2017-03-02T10:12:01.224Z,10792
2017-03-02T10:13:01.211Z,11720
2017-03-02T10:14:01.196Z,13640
2017-03-02T10:15:01.188Z,11912
2017-03-02T10:16:01.205Z,8568
2017-03-02T10:17:01.165Z,8004
2017-03-02T10:18:01.167Z,10340
2017-03-02T10:19:01.160Z,9836
2017-03-02T10:20:01.179Z,7712
2017-03-02T10:21:00.756Z,9864
2017-03-02T10:22:01.177Z,11732
2017-03-02T10:23:01.150Z,15128
2017-03-02T10:24:01.399Z,15840
2017-03-02T10:25:00.359Z,13056
2017-03-02T10:26:00.726Z,13084
2017-03-02T10:27:01.118Z,13480
2017-03-02T10:28:01.099Z,15756
2017-03-02T10:29:01.100Z,17248
2017-03-02T10:30:01.099Z,17440
2017-03-02T10:31:01.077Z,17152
2017-03-02T10:32:01.071Z,20576
2017-03-02T10:33:01.064Z,18560
2017-03-02T10:34:01.055Z,18752
2017-03-02T10:35:01.054Z,19168
2017-03-02T10:36:00.660Z,18304
2017-03-02T10:37:01.041Z,14864
2017-03-02T10:38:01.060Z,16800
2017-03-02T10:39:01.028Z,14784
2017-03-02T10:40:00.649Z,14724
2017-03-02T10:41:01.046Z,18112
2017-03-02T10:42:01.035Z,14252
2017-03-02T10:43:01.044Z,12060
2017-03-02T10:44:01.019Z,12716
2017-03-02T10:45:01.002Z,12140
2017-03-02T10:46:01.009Z,11352
2017-03-02T10:47:01.005Z,10204
2017-03-02T10:48:00.614Z,9692
2017-03-02T10:49:00.980Z,8500
2017-03-02T10:50:00.969Z,8468
2017-03-02T10:51:00.968Z,5760
2017-03-02T10:52:00.973Z,5968
2017-03-02T10:53:00.953Z,6704
2017-03-02T10:54:00.966Z,8676
2017-03-02T10:55:00.957Z,9948
2017-03-02T10:56:00.944Z,8620
2017-03-02T10:57:00.934Z,7984
2017-03-02T10:58:00.922Z,7644
2017-03-02T10:59:00.919Z,8312
2017-03-02T11:00:00.927Z,9612
2017-03-02T11:01:00.923Z,10656
2017-03-02T11:02:00.934Z,10588
2017-03-02T11:03:00.513Z,9564
2017-03-02T11:04:00.888Z,10828
2017-03-02T11:05:00.887Z,13856
2017-03-02T11:06:00.873Z,15652
2017-03-02T11:07:00.885Z,15860
2017-03-02T11:08:00.861Z,15908
2017-03-02T11:09:00.876Z,16168
2017-03-02T11:10:00.874Z,16640
2017-03-02T11:11:00.486Z,16896
2017-03-02T11:12:00.466Z,16640
2017-03-02T11:13:00.844Z,16864
2017-03-02T11:14:00.829Z,17248
2017-03-02T11:15:00.439Z,18336
2017-03-02T11:16:00.817Z,18560
2017-03-02T11:17:00.820Z,18080
2017-03-02T11:18:00.836Z,17376
2017-03-02T11:19:00.796Z,14676
2017-03-02T11:20:00.789Z,15772
2017-03-02T11:21:00.789Z,18784
2017-03-02T11:22:00.797Z,19392
2017-03-02T11:23:00.387Z,18656
2017-03-02T11:24:00.779Z,17376
2017-03-02T11:25:00.763Z,15740
2017-03-02T11:26:00.364Z,14764
2017-03-02T11:27:00.750Z,14908
2017-03-02T11:28:00.766Z,12576
2017-03-02T11:29:00.738Z,11312
2017-03-02T11:30:00.733Z,11352
2017-03-02T11:31:00.718Z,10564
2017-03-02T11:32:00.745Z,9416
2017-03-02T11:33:00.709Z,9320
2017-03-02T11:34:00.710Z,8436
2017-03-02T11:35:00.706Z,8312
2017-03-02T11:36:00.697Z,8280
2017-03-02T11:37:00.704Z,8988
2017-03-02T11:38:00.679Z,8900
2017-03-02T11:39:00.704Z,8728
2017-03-02T11:40:00.661Z,8032
2017-03-02T11:41:00.958Z,7916
2017-03-02T11:42:00.665Z,7628
2017-03-02T11:43:00.649Z,7332
2017-03-02T11:44:00.633Z,7444
2017-03-02T11:45:00.626Z,7576
2017-03-02T11:46:00.621Z,7784
2017-03-02T11:47:00.653Z,7564
2017-03-02T11:48:00.616Z,7420
2017-03-02T11:49:00.600Z,7312
2017-03-02T11:50:00.591Z,7348
2017-03-02T11:51:00.621Z,7072
2017-03-02T11:52:00.584Z,7112
2017-03-02T11:53:00.609Z,7488
2017-03-02T11:54:00.573Z,7524
2017-03-02T11:55:00.547Z,8040
2017-03-02T11:56:00.542Z,8216
2017-03-02T11:57:00.531Z,8128
2017-03-02T11:58:00.558Z,8208
2017-03-02T11:59:00.535Z,8548
2017-03-02T12:00:00.523Z,9096
2017-03-02T12:01:00.528Z,9920
2017-03-02T12:02:00.138Z,10420
2017-03-02T12:03:00.481Z,11004
2017-03-02T12:04:00.471Z,11524
2017-03-02T12:05:00.491Z,11784
2017-03-02T12:06:00.479Z,12516
2017-03-02T12:07:00.448Z,13312
2017-03-02T12:08:00.461Z,14104
2017-03-02T12:09:00.459Z,14632
2017-03-02T12:10:00.442Z,14956
2017-03-02T12:11:00.422Z,15308
2017-03-02T12:12:00.413Z,15656
2017-03-02T12:13:00.401Z,16352
2017-03-02T12:14:00.408Z,16416
2017-03-02T12:15:00.379Z,16512
2017-03-02T12:16:00.397Z,16416
2017-03-02T12:17:00.363Z,15816
2017-03-02T12:18:00.389Z,15048
2017-03-02T12:19:00.359Z,14756
2017-03-02T12:20:00.365Z,14616
2017-03-02T12:21:00.346Z,14508
2017-03-02T12:22:00.354Z,14216
2017-03-02T12:23:00.326Z,14020
2017-03-02T12:24:00.318Z,13744
2017-03-02T12:25:00.305Z,13424
2017-03-02T12:26:00.302Z,13352
2017-03-02T12:27:00.294Z,13144
2017-03-02T12:27:59.893Z,13104
2017-03-02T12:29:00.277Z,12876
2017-03-02T12:30:00.275Z,12548
2017-03-02T12:31:00.262Z,12640
2017-03-02T12:32:00.285Z,12300
2017-03-02T12:33:00.255Z,11888
2017-03-02T12:34:00.261Z,11096
2017-03-02T12:35:00.229Z,12076
2017-03-02T12:36:00.240Z,12216
2017-03-02T12:37:00.239Z,12156
2017-03-02T12:38:00.215Z,13260
2017-03-02T12:39:00.207Z,15208
2017-03-02T12:40:00.213Z,14968
2017-03-02T12:41:00.214Z,13540
2017-03-02T12:42:00.220Z,13116
2017-03-02T12:43:00.187Z,13248
2017-03-02T12:43:59.811Z,14388
2017-03-02T12:45:00.178Z,15168
2017-03-02T12:46:00.431Z,13588
2017-03-02T12:47:00.180Z,13032
2017-03-02T12:48:00.161Z,10708
2017-03-02T12:49:00.157Z,10092
2017-03-02T12:50:00.148Z,9872
2017-03-02T12:51:00.153Z,12876
2017-03-02T12:52:00.118Z,13128
2017-03-02T12:53:00.152Z,13224
2017-03-02T12:54:00.129Z,14200
2017-03-02T12:55:00.100Z,14200
2017-03-02T12:56:00.129Z,13800
2017-03-02T12:57:00.092Z,14736
2017-03-02T12:58:00.082Z,14792
2017-03-02T12:59:00.074Z,12044
2017-03-02T13:00:00.069Z,11332
2017-03-02T13:01:00.078Z,10748
2017-03-02T13:02:00.094Z,12320
2017-03-02T13:03:00.074Z,12680
2017-03-02T13:04:00.044Z,10808
2017-03-02T13:05:00.064Z,10984
2017-03-02T13:06:00.052Z,8800
2017-03-02T13:06:59.649Z,7688
2017-03-02T13:07:59.650Z,8068
2017-03-02T13:09:00.013Z,6756
2017-03-02T13:10:00.015Z,5960
2017-03-02T13:11:00.016Z,6088
2017-03-02T13:11:59.996Z,5024
2017-03-02T13:12:59.990Z,4652
2017-03-02T13:13:59.985Z,5116
2017-03-02T13:14:59.973Z,5488
2017-03-02T13:15:59.969Z,5000
2017-03-02T13:16:59.958Z,4816
2017-03-02T13:17:59.952Z,4724
2017-03-02T13:18:59.559Z,5664
2017-03-02T13:19:59.940Z,6348
2017-03-02T13:20:59.935Z,6532
2017-03-02T13:21:59.925Z,7444
2017-03-02T13:22:59.941Z,6556
2017-03-02T13:23:59.932Z,6316
2017-03-02T13:24:59.898Z,6848
2017-03-02T13:25:59.916Z,6640
2017-03-02T13:26:59.889Z,5804
2017-03-02T13:27:59.882Z,5280
2017-03-02T13:28:59.882Z,4452
2017-03-02T13:29:59.525Z,3672
2017-03-02T13:30:59.886Z,4208
2017-03-02T13:31:59.888Z,3740
2017-03-02T13:32:59.848Z,2920
2017-03-02T13:33:59.848Z,4248
2017-03-02T13:34:59.453Z,4368
2017-03-02T13:35:59.830Z,4272
2017-03-02T13:36:59.445Z,3752
2017-03-02T13:37:59.803Z,3008
2017-03-02T13:38:59.789Z,3984
2017-03-02T13:39:59.789Z,4044
2017-03-02T13:40:59.778Z,4140
2017-03-02T13:41:59.768Z,3820
2017-03-02T13:42:59.793Z,4176
2017-03-02T13:43:59.770Z,5244
2017-03-02T13:44:59.762Z,5756
2017-03-02T13:45:59.734Z,4864
2017-03-02T13:46:59.341Z,5740